Time;durP1;ratioP1;P1;durP2;ratioP2;P2;SDS_P1;SDS_P2;PMS_P1;PMS_P2;Temp;Humidity;BMP_temperature;BMP_pressure;BME280_temperature;BME280_humidity;BME280_pressure;Samples;Min_cycle;Max_cycle;Signal;HPM_P1;HPM_P2
2023/01/27 00:00:16;;;;;;;;;;;5.70;99.90;;;;;;4972278;28;19926;-68
2023/01/27 00:02:44;;;;;;;;;;;5.70;99.90;;;;;;4972158;28;19933;-68
2023/01/27 00:05:11;;;;;;;;;;;5.70;99.90;;;;;;4970528;28;20393;-68
2023/01/27 00:07:44;;;;;;;;;;;5.70;99.90;;;;;;4971776;28;20018;-68
2023/01/27 00:10:13;;;;;;;;;;;5.60;99.90;;;;;;4972519;28;19945;-68
2023/01/27 00:15:26;;;;;;;;;;;5.60;99.90;;;;;;4970652;28;20023;-69
2023/01/27 00:17:53;;;;;;;;;;;5.60;99.90;;;;;;4971493;28;19926;-69
2023/01/27 00:24:34;;;;;;;;;;;5.70;99.90;;;;;;4970813;28;20345;-67
2023/01/27 00:25:59;;;;;;;;;;;5.70;99.90;;;;;;4969615;28;20297;-68
2023/01/27 00:28:30;;;;;;;;;;;5.60;99.90;;;;;;4971128;28;19932;-69
2023/01/27 00:30:57;;;;;;;;;;;5.60;99.90;;;;;;4966578;28;20408;-69
2023/01/27 00:33:26;;;;;;;;;;;5.70;99.90;;;;;;4970327;28;19926;-69
2023/01/27 00:35:56;;;;;;;;;;;5.70;99.90;;;;;;4968888;28;19933;-68
2023/01/27 00:38:23;;;;;;;;;;;5.70;99.90;;;;;;4960780;28;19926;-68
2023/01/27 00:43:31;;;;;;;;;;;5.60;99.90;;;;;;4974169;28;19930;-68
2023/01/27 00:45:58;;;;;;;;;;;5.60;99.90;;;;;;4970974;28;19930;-68
2023/01/27 00:48:25;;;;;;;;;;;5.60;99.90;;;;;;4970342;28;19926;-68
2023/01/27 00:50:52;;;;;;;;;;;5.60;99.90;;;;;;4968465;28;20036;-67
2023/01/27 00:53:19;;;;;;;;;;;5.60;99.90;;;;;;4970733;28;19972;-66
2023/01/27 00:55:46;;;;;;;;;;;5.60;99.90;;;;;;4969572;28;19930;-66
2023/01/27 00:58:13;;;;;;;;;;;5.60;99.90;;;;;;4971309;28;19933;-67
2023/01/27 01:00:43;;;;;;;;;;;5.50;99.90;;;;;;4971466;28;20294;-67
2023/01/27 01:03:10;;;;;;;;;;;5.50;99.90;;;;;;4970935;28;19926;-67
2023/01/27 01:05:37;;;;;;;;;;;5.50;99.90;;;;;;4957655;28;19926;-67
2023/01/27 01:08:03;;;;;;;;;;;5.60;99.90;;;;;;4960433;28;19932;-67
2023/01/27 01:10:30;;;;;;;;;;;5.50;99.90;;;;;;4969442;28;19991;-67
2023/01/27 01:12:57;;;;;;;;;;;5.50;99.90;;;;;;4970212;28;19926;-67
2023/01/27 01:15:27;;;;;;;;;;;5.50;99.90;;;;;;4969737;28;19972;-67
2023/01/27 01:17:56;;;;;;;;;;;5.50;99.90;;;;;;4970041;28;19977;-68
2023/01/27 01:20:24;;;;;;;;;;;5.40;99.90;;;;;;4968224;28;20016;-69
2023/01/27 01:22:50;;;;;;;;;;;5.50;99.90;;;;;;4951274;28;19930;-66
2023/01/27 01:25:17;;;;;;;;;;;5.50;99.90;;;;;;4956250;28;20336;-67
2023/01/27 01:27:44;;;;;;;;;;;5.40;99.90;;;;;;4970080;28;19927;-67
2023/01/27 01:30:11;;;;;;;;;;;5.40;99.90;;;;;;4970062;28;19930;-67
2023/01/27 01:32:38;;;;;;;;;;;5.50;99.90;;;;;;4970175;28;20360;-67
2023/01/27 01:35:07;;;;;;;;;;;5.50;99.90;;;;;;4969767;28;19930;-67
2023/01/27 01:37:33;;;;;;;;;;;5.40;99.90;;;;;;4968319;28;19927;-67
2023/01/27 01:40:00;;;;;;;;;;;5.40;99.90;;;;;;4970430;28;19926;-69
2023/01/27 01:42:45;;;;;;;;;;;5.40;99.90;;;;;;4970947;28;20009;-69
2023/01/27 01:45:31;;;;;;;;;;;5.40;99.90;;;;;;4969974;28;20025;-69
2023/01/27 01:47:58;;;;;;;;;;;5.40;99.90;;;;;;4968417;28;20385;-69
2023/01/27 01:50:26;;;;;;;;;;;5.40;99.90;;;;;;4968436;28;20025;-69
2023/01/27 01:52:54;;;;;;;;;;;5.40;99.90;;;;;;4970227;28;19934;-69
2023/01/27 01:55:21;;;;;;;;;;;5.40;99.90;;;;;;4968654;28;20338;-69
2023/01/27 01:57:48;;;;;;;;;;;5.30;99.90;;;;;;4968489;28;19926;-69
2023/01/27 02:00:17;;;;;;;;;;;5.30;99.90;;;;;;4970296;28;19930;-69
2023/01/27 02:02:45;;;;;;;;;;;5.30;99.90;;;;;;4967372;28;20013;-69
2023/01/27 02:05:14;;;;;;;;;;;5.30;99.90;;;;;;4964378;28;19926;-69
2023/01/27 02:07:45;;;;;;;;;;;5.30;99.90;;;;;;4966433;28;19932;-69
2023/01/27 02:10:12;;;;;;;;;;;5.30;99.90;;;;;;4962772;28;19926;-69
2023/01/27 02:12:39;;;;;;;;;;;5.30;99.90;;;;;;4966985;28;20022;-69
2023/01/27 02:15:06;;;;;;;;;;;5.20;99.90;;;;;;4962956;28;20290;-67
2023/01/27 02:17:33;;;;;;;;;;;5.20;99.90;;;;;;4968216;28;19930;-68
2023/01/27 02:20:09;;;;;;;;;;;5.30;99.90;;;;;;4965249;28;19927;-68
2023/01/27 02:22:39;;;;;;;;;;;5.30;99.90;;;;;;4964995;28;19926;-68
2023/01/27 02:25:12;;;;;;;;;;;5.30;99.90;;;;;;4966053;28;19926;-68
2023/01/27 02:27:40;;;;;;;;;;;5.20;99.90;;;;;;4966800;28;19977;-68
2023/01/27 02:30:08;;;;;;;;;;;5.20;99.90;;;;;;4964732;28;20371;-67
2023/01/27 02:32:34;;;;;;;;;;;5.20;99.90;;;;;;4964440;28;20055;-67
2023/01/27 02:35:01;;;;;;;;;;;5.10;99.90;;;;;;4966079;28;19930;-67
2023/01/27 02:37:30;;;;;;;;;;;5.10;99.90;;;;;;4966453;28;19927;-68
2023/01/27 02:39:57;;;;;;;;;;;5.10;99.90;;;;;;4964742;28;20019;-68
2023/01/27 02:42:24;;;;;;;;;;;5.10;99.90;;;;;;4967114;28;19977;-68
2023/01/27 02:44:52;;;;;;;;;;;5.10;99.90;;;;;;4965078;28;20064;-68
2023/01/27 02:47:19;;;;;;;;;;;5.10;99.90;;;;;;4965225;28;19926;-67
2023/01/27 02:49:46;;;;;;;;;;;5.10;99.90;;;;;;4965966;28;19926;-68
2023/01/27 02:52:15;;;;;;;;;;;5.10;99.90;;;;;;4965070;28;20015;-67
2023/01/27 02:54:42;;;;;;;;;;;5.10;99.90;;;;;;4966230;28;19957;-68
2023/01/27 02:57:09;;;;;;;;;;;5.10;99.90;;;;;;4967846;28;19979;-68
2023/01/27 02:59:36;;;;;;;;;;;5.10;99.90;;;;;;4965753;28;19955;-68
2023/01/27 03:02:04;;;;;;;;;;;5.00;99.90;;;;;;4968545;28;19927;-67
2023/01/27 03:04:31;;;;;;;;;;;5.00;99.90;;;;;;4969379;28;20007;-68
2023/01/27 03:06:58;;;;;;;;;;;5.00;99.90;;;;;;4968963;28;19926;-69
2023/01/27 03:09:25;;;;;;;;;;;5.00;99.90;;;;;;4968787;28;19930;-69
2023/01/27 03:20:06;;;;;;;;;;;5.00;99.90;;;;;;4969713;28;19938;-68
2023/01/27 03:22:33;;;;;;;;;;;5.00;99.90;;;;;;4968616;28;20300;-68
2023/01/27 03:25:00;;;;;;;;;;;5.00;99.90;;;;;;4965016;28;20304;-68
2023/01/27 03:27:26;;;;;;;;;;;5.00;99.90;;;;;;4969619;28;20023;-68
2023/01/27 03:29:56;;;;;;;;;;;5.00;99.90;;;;;;4967174;28;19937;-69
2023/01/27 03:32:26;;;;;;;;;;;4.90;99.90;;;;;;4971092;28;20016;-68
2023/01/27 03:34:53;;;;;;;;;;;4.90;99.90;;;;;;4969247;28;20213;-68
2023/01/27 03:48:22;;;;;;;;;;;4.90;99.90;;;;;;4966518;28;19971;-68
2023/01/27 03:50:52;;;;;;;;;;;4.90;99.90;;;;;;4968012;28;19961;-68
2023/01/27 03:53:19;;;;;;;;;;;4.90;99.90;;;;;;4965697;28;19984;-68
2023/01/27 03:55:46;;;;;;;;;;;4.90;99.90;;;;;;4963187;28;19960;-68
2023/01/27 03:58:20;;;;;;;;;;;4.90;99.90;;;;;;4967287;28;19979;-68
2023/01/27 04:00:49;;;;;;;;;;;4.90;99.90;;;;;;4968832;28;19927;-69
2023/01/27 04:08:48;;;;;;;;;;;4.90;99.90;;;;;;4969244;28;19948;-69
2023/01/27 04:14:02;;;;;;;;;;;4.80;99.90;;;;;;4970079;28;19972;-68
2023/01/27 04:16:33;;;;;;;;;;;4.80;99.90;;;;;;4968812;28;20332;-68
2023/01/27 04:19:00;;;;;;;;;;;4.80;99.90;;;;;;4969292;28;19926;-68
2023/01/27 04:21:28;;;;;;;;;;;4.80;99.90;;;;;;4968946;28;19926;-68
2023/01/27 04:23:55;;;;;;;;;;;4.80;99.90;;;;;;4967905;28;20404;-68
2023/01/27 04:26:22;;;;;;;;;;;4.70;99.90;;;;;;4968611;28;19930;-67
2023/01/27 04:28:49;;;;;;;;;;;4.70;99.90;;;;;;4967953;28;19926;-68
2023/01/27 04:31:17;;;;;;;;;;;4.60;99.90;;;;;;4967249;28;19926;-68
2023/01/27 04:33:44;;;;;;;;;;;4.50;99.90;;;;;;4969256;28;20373;-67
2023/01/27 04:36:11;;;;;;;;;;;4.50;99.90;;;;;;4969558;28;20280;-67
2023/01/27 04:38:39;;;;;;;;;;;4.50;99.90;;;;;;4966821;28;20289;-67
2023/01/27 04:41:06;;;;;;;;;;;4.50;99.90;;;;;;4967342;28;19969;-67
2023/01/27 04:43:33;;;;;;;;;;;4.40;99.90;;;;;;4965339;28;19952;-68
2023/01/27 04:45:59;;;;;;;;;;;4.40;99.90;;;;;;4966432;28;20028;-68
2023/01/27 04:48:26;;;;;;;;;;;4.30;99.90;;;;;;4966914;28;20024;-66
2023/01/27 04:50:53;;;;;;;;;;;4.30;99.90;;;;;;4963064;28;19972;-66
2023/01/27 04:53:20;;;;;;;;;;;4.30;99.90;;;;;;4969034;28;20374;-67
2023/01/27 04:55:49;;;;;;;;;;;4.30;99.90;;;;;;4966004;28;19930;-67
2023/01/27 04:58:16;;;;;;;;;;;4.20;99.90;;;;;;4968870;28;19933;-67
2023/01/27 05:00:43;;;;;;;;;;;4.20;99.90;;;;;;4966460;28;19971;-67
2023/01/27 05:03:10;;;;;;;;;;;4.20;99.90;;;;;;4964842;28;19933;-67
2023/01/27 05:05:37;;;;;;;;;;;4.10;99.90;;;;;;4967099;28;19926;-67
2023/01/27 05:08:04;;;;;;;;;;;4.10;99.90;;;;;;4968021;28;19926;-68
2023/01/27 05:10:31;;;;;;;;;;;4.10;99.90;;;;;;4966107;28;19934;-67
2023/01/27 05:13:00;;;;;;;;;;;4.10;99.90;;;;;;4967595;28;19949;-67
2023/01/27 05:15:27;;;;;;;;;;;4.10;99.90;;;;;;4967325;28;20017;-67
2023/01/27 05:17:54;;;;;;;;;;;4.00;99.90;;;;;;4968435;28;19926;-67
2023/01/27 05:20:21;;;;;;;;;;;4.10;99.90;;;;;;4965679;28;19926;-68
2023/01/27 05:22:48;;;;;;;;;;;4.00;99.90;;;;;;4966916;28;19926;-68
2023/01/27 05:25:15;;;;;;;;;;;4.00;99.90;;;;;;4967331;28;19977;-68
2023/01/27 05:27:41;;;;;;;;;;;4.00;99.90;;;;;;4967941;28;20294;-68
2023/01/27 05:30:10;;;;;;;;;;;3.90;99.90;;;;;;4966790;28;20020;-68
2023/01/27 05:32:37;;;;;;;;;;;3.90;99.90;;;;;;4968974;28;20395;-68
2023/01/27 05:35:04;;;;;;;;;;;3.90;99.90;;;;;;4960921;28;20395;-68
2023/01/27 05:37:30;;;;;;;;;;;3.90;99.90;;;;;;4965724;28;19926;-69
2023/01/27 05:39:58;;;;;;;;;;;3.80;99.90;;;;;;4966846;28;19927;-69
2023/01/27 05:42:24;;;;;;;;;;;3.80;99.90;;;;;;4967760;28;19979;-69
2023/01/27 05:44:51;;;;;;;;;;;3.80;99.90;;;;;;4965141;28;20020;-68
2023/01/27 05:47:19;;;;;;;;;;;3.80;99.90;;;;;;4968191;28;19974;-68
2023/01/27 05:49:46;;;;;;;;;;;3.70;99.90;;;;;;4966168;28;19930;-69
2023/01/27 05:52:13;;;;;;;;;;;3.70;99.90;;;;;;4964174;28;19930;-67
2023/01/27 05:54:40;;;;;;;;;;;3.70;99.90;;;;;;4958492;28;19930;-67
2023/01/27 05:57:06;;;;;;;;;;;3.70;99.90;;;;;;4965480;28;20478;-69
2023/01/27 05:59:33;;;;;;;;;;;3.70;99.90;;;;;;4965733;28;20508;-69
2023/01/27 06:02:00;;;;;;;;;;;3.70;99.90;;;;;;4965952;28;20017;-69
2023/01/27 06:04:28;;;;;;;;;;;3.60;99.90;;;;;;4969043;28;19926;-68
2023/01/27 06:06:55;;;;;;;;;;;3.70;99.90;;;;;;4968336;28;19926;-66
2023/01/27 06:09:21;;;;;;;;;;;3.60;99.90;;;;;;4968532;28;19972;-68
2023/01/27 06:11:48;;;;;;;;;;;3.60;99.90;;;;;;4954378;28;19926;-68
2023/01/27 06:14:15;;;;;;;;;;;3.60;99.90;;;;;;4969611;28;19933;-68
2023/01/27 06:16:42;;;;;;;;;;;3.60;99.90;;;;;;4967504;28;19933;-68
2023/01/27 06:19:10;;;;;;;;;;;3.60;99.90;;;;;;4971151;28;20329;-68
2023/01/27 06:21:38;;;;;;;;;;;3.60;99.90;;;;;;4963321;28;19927;-68
2023/01/27 06:24:05;;;;;;;;;;;3.60;99.90;;;;;;4963716;28;19927;-67
2023/01/27 06:26:31;;;;;;;;;;;3.60;99.90;;;;;;4964941;28;19931;-67
2023/01/27 06:28:58;;;;;;;;;;;3.60;99.90;;;;;;4962520;28;19930;-68
2023/01/27 06:31:26;;;;;;;;;;;3.60;99.90;;;;;;4962514;28;19972;-68
2023/01/27 06:33:53;;;;;;;;;;;3.50;99.90;;;;;;4966557;28;19933;-68
2023/01/27 06:36:20;;;;;;;;;;;3.50;99.90;;;;;;4966707;28;19930;-68
2023/01/27 06:38:49;;;;;;;;;;;3.60;99.90;;;;;;4969934;28;20374;-68
2023/01/27 06:41:16;;;;;;;;;;;3.50;99.90;;;;;;4957541;28;20037;-68
2023/01/27 06:43:45;;;;;;;;;;;3.50;99.90;;;;;;4967124;28;19965;-67
2023/01/27 06:46:12;;;;;;;;;;;3.50;99.90;;;;;;4963375;28;19926;-67
2023/01/27 06:48:39;;;;;;;;;;;3.50;99.90;;;;;;4971097;28;19934;-68
2023/01/27 06:51:06;;;;;;;;;;;3.50;99.90;;;;;;4968955;28;22938;-68
2023/01/27 06:53:37;;;;;;;;;;;3.50;99.90;;;;;;4968946;28;20029;-67
2023/01/27 06:56:06;;;;;;;;;;;3.50;99.90;;;;;;4966579;28;19931;-67
2023/01/27 06:58:35;;;;;;;;;;;3.50;99.90;;;;;;4969888;28;19927;-68
2023/01/27 07:01:04;;;;;;;;;;;3.40;99.90;;;;;;4967739;28;19932;-68
2023/01/27 07:03:30;;;;;;;;;;;3.40;99.90;;;;;;4963050;28;19925;-68
2023/01/27 07:05:57;;;;;;;;;;;3.40;99.90;;;;;;4964254;28;19973;-68
2023/01/27 07:08:24;;;;;;;;;;;3.40;99.90;;;;;;4969854;28;19952;-68
2023/01/27 07:10:51;;;;;;;;;;;3.40;99.90;;;;;;4968522;28;20231;-67
2023/01/27 07:13:19;;;;;;;;;;;3.40;99.90;;;;;;4969437;28;20317;-68
2023/01/27 07:15:46;;;;;;;;;;;3.40;99.90;;;;;;4968203;28;19932;-68
2023/01/27 07:18:13;;;;;;;;;;;3.40;99.90;;;;;;4968226;28;19931;-68
2023/01/27 07:20:40;;;;;;;;;;;3.40;99.90;;;;;;4963807;28;20316;-68
2023/01/27 07:23:07;;;;;;;;;;;3.40;99.90;;;;;;4969457;28;19926;-64
2023/01/27 07:25:34;;;;;;;;;;;3.40;99.90;;;;;;4968425;28;19934;-66
2023/01/27 07:28:02;;;;;;;;;;;3.30;99.90;;;;;;4970992;28;19932;-66
2023/01/27 07:30:30;;;;;;;;;;;3.40;99.90;;;;;;4965615;28;20297;-66
2023/01/27 07:33:03;;;;;;;;;;;3.40;99.90;;;;;;4967235;28;19931;-67
2023/01/27 07:35:30;;;;;;;;;;;3.40;99.90;;;;;;4968173;28;19927;-67
2023/01/27 07:37:57;;;;;;;;;;;3.40;99.90;;;;;;4968721;28;19957;-67
2023/01/27 07:40:23;;;;;;;;;;;3.40;99.90;;;;;;4967675;28;20538;-67
2023/01/27 07:42:50;;;;;;;;;;;3.40;99.90;;;;;;4970252;28;20381;-67
2023/01/27 07:45:17;;;;;;;;;;;3.40;99.90;;;;;;4966691;28;19969;-66
2023/01/27 07:47:45;;;;;;;;;;;3.40;99.90;;;;;;4968705;28;20361;-67
2023/01/27 07:50:12;;;;;;;;;;;3.40;99.90;;;;;;4965267;28;19992;-67
2023/01/27 07:52:39;;;;;;;;;;;3.40;99.90;;;;;;4961350;28;20478;-69
2023/01/27 07:55:06;;;;;;;;;;;3.40;99.90;;;;;;4966378;28;20022;-68
2023/01/27 07:57:33;;;;;;;;;;;3.40;99.90;;;;;;4970563;28;19930;-68
2023/01/27 08:00:00;;;;;;;;;;;3.40;99.90;;;;;;4966707;28;20029;-68
2023/01/27 08:02:30;;;;;;;;;;;3.40;99.90;;;;;;4964287;28;19926;-68
2023/01/27 08:04:58;;;;;;;;;;;3.40;99.90;;;;;;4963871;28;19931;-68
2023/01/27 08:07:25;;;;;;;;;;;3.40;99.90;;;;;;4968804;28;19965;-68
2023/01/27 08:09:53;;;;;;;;;;;3.30;99.90;;;;;;4963275;28;20010;-68
2023/01/27 08:12:20;;;;;;;;;;;3.40;99.90;;;;;;4968404;28;19936;-68
2023/01/27 08:14:47;;;;;;;;;;;3.40;99.90;;;;;;4968182;28;19927;-68
2023/01/27 08:17:16;;;;;;;;;;;3.40;99.90;;;;;;4970681;28;19988;-68
2023/01/27 08:19:43;;;;;;;;;;;3.40;99.90;;;;;;4965343;28;19978;-68
2023/01/27 08:22:18;;;;;;;;;;;3.50;99.90;;;;;;4968822;28;19930;-68
2023/01/27 08:24:45;;;;;;;;;;;3.50;99.90;;;;;;4967410;28;19926;-68
2023/01/27 08:27:12;;;;;;;;;;;3.60;99.90;;;;;;4959192;28;19972;-68
2023/01/27 08:29:39;;;;;;;;;;;3.60;99.90;;;;;;4964081;28;20394;-69
2023/01/27 08:32:06;;;;;;;;;;;3.60;99.90;;;;;;4966107;28;19980;-69
2023/01/27 08:34:37;;;;;;;;;;;3.60;99.90;;;;;;4962881;28;19958;-70
2023/01/27 08:37:04;;;;;;;;;;;3.60;99.90;;;;;;4974078;28;19972;-70
2023/01/27 08:39:33;;;;;;;;;;;3.60;99.90;;;;;;4957756;28;19995;-70
2023/01/27 08:41:59;;;;;;;;;;;3.60;99.90;;;;;;4962223;28;19930;-70
2023/01/27 08:44:27;;;;;;;;;;;3.60;99.90;;;;;;4962978;28;20001;-70
2023/01/27 08:46:54;;;;;;;;;;;3.60;99.90;;;;;;4967212;28;19937;-70
2023/01/27 08:49:20;;;;;;;;;;;3.60;99.90;;;;;;4965796;28;19977;-70
2023/01/27 08:51:48;;;;;;;;;;;3.50;99.90;;;;;;4963617;28;19980;-70
2023/01/27 08:54:14;;;;;;;;;;;3.60;99.90;;;;;;4964858;28;19969;-69
2023/01/27 08:56:46;;;;;;;;;;;3.60;99.90;;;;;;4963837;28;20004;-70
2023/01/27 08:59:12;;;;;;;;;;;3.60;99.90;;;;;;4963738;28;19934;-71
2023/01/27 09:01:40;;;;;;;;;;;3.70;99.90;;;;;;4962244;28;19969;-70
2023/01/27 09:04:07;;;;;;;;;;;3.70;99.90;;;;;;4963695;28;20126;-71
2023/01/27 09:06:34;;;;;;;;;;;3.70;99.90;;;;;;4965761;28;19930;-70
2023/01/27 09:09:11;;;;;;;;;;;3.80;99.90;;;;;;4964221;28;19927;-71
2023/01/27 09:11:38;;;;;;;;;;;3.80;99.90;;;;;;4961456;28;20051;-70
2023/01/27 09:14:07;;;;;;;;;;;3.80;99.90;;;;;;4966155;28;19926;-71
2023/01/27 09:16:36;;;;;;;;;;;3.80;99.90;;;;;;4957794;28;19980;-70
2023/01/27 09:19:04;;;;;;;;;;;3.90;99.90;;;;;;4965934;28;19969;-71
2023/01/27 09:21:34;;;;;;;;;;;3.90;99.90;;;;;;4961603;28;20354;-70
2023/01/27 09:24:02;;;;;;;;;;;4.00;99.90;;;;;;4966493;28;20293;-71
2023/01/27 09:26:30;;;;;;;;;;;4.00;99.90;;;;;;4965103;28;19956;-70
2023/01/27 09:28:57;;;;;;;;;;;4.00;99.90;;;;;;4966701;28;19930;-69
2023/01/27 09:31:26;;;;;;;;;;;4.10;99.90;;;;;;4960577;28;19926;-70
2023/01/27 09:33:59;;;;;;;;;;;4.10;99.90;;;;;;4963036;28;20384;-70
2023/01/27 09:36:27;;;;;;;;;;;4.00;99.90;;;;;;4962845;28;19973;-71
2023/01/27 09:39:02;;;;;;;;;;;4.10;99.90;;;;;;4963273;28;20019;-70
2023/01/27 09:41:36;;;;;;;;;;;4.10;99.90;;;;;;4965290;28;20399;-68
2023/01/27 09:44:12;;;;;;;;;;;4.10;99.90;;;;;;4963191;28;20080;-68
2023/01/27 09:46:52;;;;;;;;;;;4.20;99.90;;;;;;4964527;28;19926;-69
2023/01/27 09:49:46;;;;;;;;;;;4.20;99.90;;;;;;4960773;28;19926;-69
2023/01/27 09:52:21;;;;;;;;;;;4.20;99.90;;;;;;4983621;28;19937;-70
2023/01/27 09:54:56;;;;;;;;;;;4.30;99.90;;;;;;4958147;28;20019;-70
2023/01/27 09:57:32;;;;;;;;;;;4.30;99.90;;;;;;4958771;28;19927;-68
2023/01/27 10:00:30;;;;;;;;;;;4.30;99.90;;;;;;4962543;28;20006;-70
2023/01/27 10:03:06;;;;;;;;;;;4.40;99.90;;;;;;4981861;28;19940;-70
2023/01/27 10:05:52;;;;;;;;;;;4.40;99.90;;;;;;4962150;28;20377;-71
2023/01/27 10:08:28;;;;;;;;;;;4.40;99.90;;;;;;4957897;28;19930;-73
2023/01/27 10:11:00;;;;;;;;;;;4.40;99.90;;;;;;4964690;28;19926;-70
2023/01/27 10:13:33;;;;;;;;;;;4.40;99.90;;;;;;4962932;28;19938;-70
2023/01/27 10:16:07;;;;;;;;;;;4.40;99.90;;;;;;4963679;28;19991;-69
2023/01/27 10:18:45;;;;;;;;;;;4.40;99.90;;;;;;4964978;28;19932;-70
2023/01/27 10:21:16;;;;;;;;;;;4.50;99.90;;;;;;4970520;28;20397;-70
2023/01/27 10:23:47;;;;;;;;;;;4.40;99.90;;;;;;4957721;28;19971;-71
2023/01/27 10:26:22;;;;;;;;;;;4.40;99.90;;;;;;4962805;28;19996;-71
2023/01/27 10:29:07;;;;;;;;;;;4.50;99.90;;;;;;4973787;28;20021;-69
2023/01/27 10:31:45;;;;;;;;;;;4.50;99.90;;;;;;4958343;28;20403;-69
2023/01/27 10:34:18;;;;;;;;;;;4.50;99.90;;;;;;4963285;28;19933;-70
2023/01/27 10:36:49;;;;;;;;;;;4.50;99.90;;;;;;4964058;28;19927;-70
2023/01/27 10:39:23;;;;;;;;;;;4.50;99.90;;;;;;4966128;28;19926;-69
2023/01/27 10:41:56;;;;;;;;;;;4.40;99.90;;;;;;4960200;28;19989;-70
2023/01/27 10:44:27;;;;;;;;;;;4.50;99.90;;;;;;4962902;28;20017;-69
2023/01/27 10:46:58;;;;;;;;;;;4.50;99.90;;;;;;4962288;28;19926;-68
2023/01/27 10:49:28;;;;;;;;;;;4.50;99.90;;;;;;4967178;28;20330;-68
2023/01/27 10:51:57;;;;;;;;;;;4.50;99.90;;;;;;4967389;28;20017;-68
2023/01/27 10:54:26;;;;;;;;;;;4.50;99.90;;;;;;4964047;28;19926;-68
2023/01/27 10:56:56;;;;;;;;;;;4.50;99.90;;;;;;4959750;28;20129;-67
2023/01/27 10:59:27;;;;;;;;;;;4.50;99.90;;;;;;4965705;28;20013;-71
2023/01/27 11:02:01;;;;;;;;;;;4.50;99.90;;;;;;4965459;28;20013;-69
2023/01/27 11:04:33;;;;;;;;;;;4.50;99.90;;;;;;4960095;28;19933;-69
2023/01/27 11:07:00;;;;;;;;;;;4.60;99.90;;;;;;4961768;28;20294;-71
2023/01/27 11:09:29;;;;;;;;;;;4.50;99.90;;;;;;4965115;28;19956;-70
2023/01/27 11:11:57;;;;;;;;;;;4.60;99.90;;;;;;4965696;28;20343;-69
2023/01/27 11:14:27;;;;;;;;;;;4.60;99.90;;;;;;4964094;28;19926;-69
2023/01/27 11:16:56;;;;;;;;;;;4.60;99.90;;;;;;4963250;28;20028;-70
2023/01/27 11:19:28;;;;;;;;;;;4.60;99.90;;;;;;4962131;28;19926;-69
2023/01/27 11:21:57;;;;;;;;;;;4.70;99.90;;;;;;4963105;28;20355;-69
2023/01/27 11:24:26;;;;;;;;;;;4.70;99.90;;;;;;4962163;28;19926;-70
2023/01/27 11:26:58;;;;;;;;;;;4.70;99.90;;;;;;4968204;28;19966;-69
2023/01/27 11:29:29;;;;;;;;;;;4.70;99.90;;;;;;4970475;28;20040;-69
2023/01/27 11:31:58;;;;;;;;;;;4.80;99.90;;;;;;4969380;28;20401;-70
2023/01/27 11:34:28;;;;;;;;;;;4.80;99.90;;;;;;4970064;28;19989;-69
2023/01/27 11:36:56;;;;;;;;;;;4.80;99.90;;;;;;4970983;28;19930;-69
2023/01/27 11:39:26;;;;;;;;;;;4.90;99.90;;;;;;4963579;28;19930;-69
2023/01/27 11:41:57;;;;;;;;;;;4.90;99.90;;;;;;4970437;28;20032;-70
2023/01/27 11:44:26;;;;;;;;;;;5.00;99.90;;;;;;4967462;28;19969;-69
2023/01/27 11:46:56;;;;;;;;;;;5.00;99.90;;;;;;4964646;28;19926;-70
2023/01/27 11:49:29;;;;;;;;;;;4.90;99.90;;;;;;4968020;28;20336;-70
2023/01/27 11:52:04;;;;;;;;;;;4.90;99.90;;;;;;4969069;28;19926;-69
2023/01/27 11:54:34;;;;;;;;;;;5.00;99.90;;;;;;4968111;28;19927;-70
2023/01/27 11:57:01;;;;;;;;;;;5.00;99.90;;;;;;4967561;28;19926;-70
2023/01/27 11:59:32;;;;;;;;;;;5.00;99.90;;;;;;4967389;28;19932;-69
2023/01/27 12:02:02;;;;;;;;;;;5.00;99.90;;;;;;4970063;28;19973;-70
2023/01/27 12:04:39;;;;;;;;;;;5.10;99.90;;;;;;4964873;28;20013;-70
2023/01/27 12:07:11;;;;;;;;;;;5.00;99.90;;;;;;4965097;28;19926;-70
2023/01/27 12:09:38;;;;;;;;;;;5.00;99.90;;;;;;4965856;28;19999;-70
2023/01/27 12:12:30;;;;;;;;;;;5.00;99.90;;;;;;4969923;28;20036;-70
2023/01/27 12:14:58;;;;;;;;;;;5.00;99.90;;;;;;4962852;28;19930;-70
2023/01/27 12:17:26;;;;;;;;;;;5.00;99.90;;;;;;4966579;28;19926;-69
2023/01/27 12:19:54;;;;;;;;;;;5.00;99.90;;;;;;4965366;28;19932;-69
2023/01/27 12:22:24;;;;;;;;;;;4.80;99.90;;;;;;4968405;28;19934;-69
2023/01/27 12:24:53;;;;;;;;;;;4.90;99.90;;;;;;4961269;28;19933;-70
2023/01/27 12:27:23;;;;;;;;;;;4.80;99.90;;;;;;4966499;28;20304;-70
2023/01/27 12:29:55;;;;;;;;;;;4.80;99.90;;;;;;4965039;28;19953;-69
2023/01/27 12:32:24;;;;;;;;;;;4.80;99.90;;;;;;4970343;28;19951;-69
2023/01/27 12:34:55;;;;;;;;;;;4.80;99.90;;;;;;4966903;28;20332;-70
2023/01/27 12:37:27;;;;;;;;;;;4.70;99.90;;;;;;4969304;28;20334;-69
2023/01/27 12:39:56;;;;;;;;;;;4.70;99.90;;;;;;4957021;28;19926;-69
2023/01/27 12:42:32;;;;;;;;;;;4.70;99.90;;;;;;4961963;28;19969;-69
2023/01/27 12:44:59;;;;;;;;;;;4.70;99.90;;;;;;4962736;28;19926;-70
2023/01/27 12:47:27;;;;;;;;;;;4.80;99.90;;;;;;4961310;28;19936;-70
2023/01/27 12:50:14;;;;;;;;;;;4.70;99.90;;;;;;4968702;28;19926;-70
2023/01/27 12:52:43;;;;;;;;;;;4.70;99.90;;;;;;4966764;28;20021;-70
2023/01/27 12:55:34;;;;;;;;;;;4.70;99.90;;;;;;4965040;28;19926;-70
2023/01/27 12:58:01;;;;;;;;;;;4.60;99.90;;;;;;4971601;28;20330;-69
2023/01/27 13:00:29;;;;;;;;;;;4.60;99.90;;;;;;4961744;28;19930;-70
2023/01/27 13:03:02;;;;;;;;;;;4.70;99.90;;;;;;4962330;28;19926;-69
2023/01/27 13:05:37;;;;;;;;;;;4.60;99.90;;;;;;4962419;28;19930;-69
2023/01/27 13:08:11;;;;;;;;;;;4.70;99.90;;;;;;4963394;28;19926;-70
2023/01/27 13:10:41;;;;;;;;;;;4.60;99.90;;;;;;4953405;28;19930;-71
2023/01/27 13:13:18;;;;;;;;;;;4.60;99.90;;;;;;4962843;28;19987;-70
2023/01/27 13:15:56;;;;;;;;;;;4.60;99.90;;;;;;4961694;28;20003;-70
2023/01/27 13:18:26;;;;;;;;;;;4.60;99.90;;;;;;4962027;28;19934;-69
2023/01/27 13:21:02;;;;;;;;;;;4.60;99.90;;;;;;4967015;28;20407;-70
2023/01/27 13:23:34;;;;;;;;;;;4.60;99.90;;;;;;4964029;28;19930;-69
2023/01/27 13:26:05;;;;;;;;;;;4.60;99.90;;;;;;4966215;28;19927;-68
2023/01/27 13:28:41;;;;;;;;;;;4.50;99.90;;;;;;4963891;28;20016;-68
2023/01/27 13:31:12;;;;;;;;;;;4.50;99.90;;;;;;4968609;28;19985;-68
2023/01/27 13:33:43;;;;;;;;;;;4.50;99.90;;;;;;4965907;28;19964;-68
2023/01/27 13:36:15;;;;;;;;;;;4.50;99.90;;;;;;4950769;28;19930;-69
2023/01/27 13:38:55;;;;;;;;;;;4.50;99.90;;;;;;4962623;28;19977;-68
2023/01/27 13:41:27;;;;;;;;;;;4.50;99.90;;;;;;4963140;28;20003;-68
2023/01/27 13:43:57;;;;;;;;;;;4.50;99.90;;;;;;4962063;28;20320;-68
2023/01/27 13:46:26;;;;;;;;;;;4.50;99.90;;;;;;4963640;28;19932;-69
2023/01/27 13:48:54;;;;;;;;;;;4.40;99.90;;;;;;4965043;28;19941;-68
2023/01/27 13:51:22;;;;;;;;;;;4.50;99.90;;;;;;4966805;28;19926;-68
2023/01/27 13:53:52;;;;;;;;;;;4.50;99.90;;;;;;4964435;28;20011;-68
2023/01/27 13:56:24;;;;;;;;;;;4.40;99.90;;;;;;4960364;28;20373;-68
2023/01/27 13:58:58;;;;;;;;;;;4.40;99.90;;;;;;4961020;28;19968;-68
2023/01/27 14:01:29;;;;;;;;;;;4.40;99.90;;;;;;4963877;28;20023;-66
2023/01/27 14:04:06;;;;;;;;;;;4.30;99.90;;;;;;4963479;28;20339;-66
2023/01/27 14:06:40;;;;;;;;;;;4.40;99.90;;;;;;4956406;28;19934;-68
2023/01/27 14:09:19;;;;;;;;;;;4.50;99.90;;;;;;4962967;28;19957;-67
2023/01/27 14:11:49;;;;;;;;;;;4.40;99.90;;;;;;4965157;28;19927;-66
2023/01/27 14:14:29;;;;;;;;;;;4.50;99.90;;;;;;4965692;28;19980;-66
2023/01/27 14:17:09;;;;;;;;;;;4.50;99.90;;;;;;4964478;28;19930;-67
2023/01/27 14:19:44;;;;;;;;;;;4.50;99.90;;;;;;4962476;28;19930;-66
2023/01/27 14:22:16;;;;;;;;;;;4.50;99.90;;;;;;4965108;28;19926;-67
2023/01/27 14:24:49;;;;;;;;;;;4.50;99.90;;;;;;4965588;28;19934;-67
2023/01/27 14:27:18;;;;;;;;;;;4.40;99.90;;;;;;4964511;28;19964;-67
2023/01/27 14:29:47;;;;;;;;;;;4.40;99.90;;;;;;4963425;28;19926;-68
2023/01/27 14:32:18;;;;;;;;;;;4.30;99.90;;;;;;4964992;28;19973;-69
2023/01/27 14:34:52;;;;;;;;;;;4.30;99.90;;;;;;4964296;28;19926;-68
2023/01/27 14:37:24;;;;;;;;;;;4.40;99.90;;;;;;4965017;28;19926;-69
2023/01/27 14:39:59;;;;;;;;;;;4.30;99.90;;;;;;4963440;28;19972;-68
2023/01/27 14:42:29;;;;;;;;;;;4.40;99.90;;;;;;4966137;28;19987;-69
2023/01/27 14:45:01;;;;;;;;;;;4.30;99.90;;;;;;4960978;28;20334;-69
2023/01/27 14:47:31;;;;;;;;;;;4.30;99.90;;;;;;4966665;28;19958;-70
2023/01/27 14:50:04;;;;;;;;;;;4.30;99.90;;;;;;4963781;28;19926;-71
2023/01/27 14:52:40;;;;;;;;;;;4.30;99.90;;;;;;4967347;28;19933;-69
2023/01/27 14:55:31;;;;;;;;;;;4.30;99.90;;;;;;4964729;28;19934;-68
2023/01/27 14:58:05;;;;;;;;;;;4.30;99.90;;;;;;4944969;28;19978;-69
2023/01/27 15:00:36;;;;;;;;;;;4.30;99.90;;;;;;4961512;28;19966;-69
2023/01/27 15:03:14;;;;;;;;;;;4.30;99.90;;;;;;4965164;28;19976;-70
2023/01/27 15:05:44;;;;;;;;;;;4.30;99.90;;;;;;4968574;28;20381;-69
2023/01/27 15:08:18;;;;;;;;;;;4.20;99.90;;;;;;4963328;28;19949;-70
2023/01/27 15:10:48;;;;;;;;;;;4.30;99.90;;;;;;4964864;28;19965;-70
2023/01/27 15:13:28;;;;;;;;;;;4.30;99.90;;;;;;4963248;28;20241;-68
2023/01/27 15:15:59;;;;;;;;;;;4.20;99.90;;;;;;4967179;28;19926;-69
2023/01/27 15:18:42;;;;;;;;;;;4.20;99.90;;;;;;4965410;28;19934;-69
2023/01/27 15:21:29;;;;;;;;;;;4.20;99.90;;;;;;4964389;28;19939;-68